sensor_id;sensor_type;location;lat;lon;timestamp;temperature;humidity
52575;DHT22;38468;48.114;-1.684;2022-10-16T00:00:18;16.40;79.70
52575;DHT22;38468;48.114;-1.684;2022-10-16T00:02:19;16.30;80.00
52575;DHT22;38468;48.114;-1.684;2022-10-16T00:04:22;16.30;79.80
52575;DHT22;38468;48.114;-1.684;2022-10-16T00:06:24;16.20;80.00
52575;DHT22;38468;48.114;-1.684;2022-10-16T00:08:28;16.20;80.10
52575;DHT22;38468;48.114;-1.684;2022-10-16T00:10:29;16.30;80.00
52575;DHT22;38468;48.114;-1.684;2022-10-16T00:12:33;16.30;80.10
52575;DHT22;38468;48.114;-1.684;2022-10-16T00:14:34;16.40;80.20
52575;DHT22;38468;48.114;-1.684;2022-10-16T00:16:35;16.20;80.10
52575;DHT22;38468;48.114;-1.684;2022-10-16T00:18:36;16.10;80.60
52575;DHT22;38468;48.114;-1.684;2022-10-16T00:20:37;16.20;80.60
52575;DHT22;38468;48.114;-1.684;2022-10-16T00:22:39;16.20;80.70
52575;DHT22;38468;48.114;-1.684;2022-10-16T00:24:40;16.20;80.50
52575;DHT22;38468;48.114;-1.684;2022-10-16T00:26:41;16.20;80.60
52575;DHT22;38468;48.114;-1.684;2022-10-16T00:28:47;16.10;80.70
52575;DHT22;38468;48.114;-1.684;2022-10-16T00:30:49;16.10;80.80
52575;DHT22;38468;48.114;-1.684;2022-10-16T00:32:50;16.00;81.20
52575;DHT22;38468;48.114;-1.684;2022-10-16T00:34:50;16.00;81.10
52575;DHT22;38468;48.114;-1.684;2022-10-16T00:36:51;16.10;81.10
52575;DHT22;38468;48.114;-1.684;2022-10-16T00:38:57;16.10;81.20
52575;DHT22;38468;48.114;-1.684;2022-10-16T00:41:00;16.10;81.20
52575;DHT22;38468;48.114;-1.684;2022-10-16T00:43:00;16.20;81.20
52575;DHT22;38468;48.114;-1.684;2022-10-16T00:45:02;16.10;81.50
52575;DHT22;38468;48.114;-1.684;2022-10-16T00:47:03;16.10;81.40
52575;DHT22;38468;48.114;-1.684;2022-10-16T00:49:15;16.20;81.60
52575;DHT22;38468;48.114;-1.684;2022-10-16T00:51:19;16.20;82.00
52575;DHT22;38468;48.114;-1.684;2022-10-16T00:53:22;16.10;81.60
52575;DHT22;38468;48.114;-1.684;2022-10-16T00:55:24;16.20;81.60
52575;DHT22;38468;48.114;-1.684;2022-10-16T00:57:25;16.20;81.70
52575;DHT22;38468;48.114;-1.684;2022-10-16T00:59:32;16.10;81.80
52575;DHT22;38468;48.114;-1.684;2022-10-16T01:01:33;16.00;81.80
52575;DHT22;38468;48.114;-1.684;2022-10-16T01:03:35;16.10;81.80
52575;DHT22;38468;48.114;-1.684;2022-10-16T01:05:48;16.20;81.90
52575;DHT22;38468;48.114;-1.684;2022-10-16T01:08:12;16.30;81.80
52575;DHT22;38468;48.114;-1.684;2022-10-16T01:12:50;16.30;81.70
52575;DHT22;38468;48.114;-1.684;2022-10-16T01:17:21;16.20;81.90
52575;DHT22;38468;48.114;-1.684;2022-10-16T01:21:44;16.20;81.80
52575;DHT22;38468;48.114;-1.684;2022-10-16T01:28:11;16.20;81.90
52575;DHT22;38468;48.114;-1.684;2022-10-16T01:30:32;16.30;81.90
52575;DHT22;38468;48.114;-1.684;2022-10-16T01:32:41;16.30;81.70
52575;DHT22;38468;48.114;-1.684;2022-10-16T01:34:50;16.40;81.70
52575;DHT22;38468;48.114;-1.684;2022-10-16T01:36:56;16.40;81.60
52575;DHT22;38468;48.114;-1.684;2022-10-16T01:39:00;16.30;81.60
52575;DHT22;38468;48.114;-1.684;2022-10-16T01:41:27;16.20;82.00
52575;DHT22;38468;48.114;-1.684;2022-10-16T01:43:31;16.10;82.20
52575;DHT22;38468;48.114;-1.684;2022-10-16T01:45:35;16.10;82.00
52575;DHT22;38468;48.114;-1.684;2022-10-16T01:47:36;16.20;82.10
52575;DHT22;38468;48.114;-1.684;2022-10-16T01:49:39;16.20;82.10
52575;DHT22;38468;48.114;-1.684;2022-10-16T01:51:42;16.20;82.10
52575;DHT22;38468;48.114;-1.684;2022-10-16T01:53:52;16.20;82.20
52575;DHT22;38468;48.114;-1.684;2022-10-16T01:55:55;16.20;82.10
52575;DHT22;38468;48.114;-1.684;2022-10-16T01:57:57;16.20;82.10
52575;DHT22;38468;48.114;-1.684;2022-10-16T02:00:05;16.20;82.00
52575;DHT22;38468;48.114;-1.684;2022-10-16T02:02:09;16.20;82.00
52575;DHT22;38468;48.114;-1.684;2022-10-16T02:04:17;16.10;82.10
52575;DHT22;38468;48.114;-1.684;2022-10-16T02:06:19;16.10;82.30
52575;DHT22;38468;48.114;-1.684;2022-10-16T02:08:22;16.20;82.20
52575;DHT22;38468;48.114;-1.684;2022-10-16T02:10:24;16.00;82.30
52575;DHT22;38468;48.114;-1.684;2022-10-16T02:12:28;16.10;82.40
52575;DHT22;38468;48.114;-1.684;2022-10-16T02:14:30;16.20;82.20
52575;DHT22;38468;48.114;-1.684;2022-10-16T02:16:40;16.20;82.20
52575;DHT22;38468;48.114;-1.684;2022-10-16T02:18:42;16.20;82.10
52575;DHT22;38468;48.114;-1.684;2022-10-16T02:20:54;16.20;82.10
52575;DHT22;38468;48.114;-1.684;2022-10-16T02:22:56;16.20;82.10
52575;DHT22;38468;48.114;-1.684;2022-10-16T02:24:59;16.20;82.10
52575;DHT22;38468;48.114;-1.684;2022-10-16T02:27:20;16.30;82.00
52575;DHT22;38468;48.114;-1.684;2022-10-16T02:29:25;16.20;82.00
52575;DHT22;38468;48.114;-1.684;2022-10-16T02:31:28;16.20;82.00
52575;DHT22;38468;48.114;-1.684;2022-10-16T02:33:31;16.20;82.10
52575;DHT22;38468;48.114;-1.684;2022-10-16T02:35:34;16.20;81.80
52575;DHT22;38468;48.114;-1.684;2022-10-16T02:37:36;16.20;82.00
52575;DHT22;38468;48.114;-1.684;2022-10-16T02:39:38;16.20;81.90
52575;DHT22;38468;48.114;-1.684;2022-10-16T02:41:39;16.20;82.00
52575;DHT22;38468;48.114;-1.684;2022-10-16T02:43:40;16.20;82.10
52575;DHT22;38468;48.114;-1.684;2022-10-16T02:45:40;16.20;82.10
52575;DHT22;38468;48.114;-1.684;2022-10-16T02:47:41;16.20;82.00
52575;DHT22;38468;48.114;-1.684;2022-10-16T02:49:42;16.20;82.10
52575;DHT22;38468;48.114;-1.684;2022-10-16T02:51:42;16.30;82.00
52575;DHT22;38468;48.114;-1.684;2022-10-16T02:53:43;16.30;81.90
52575;DHT22;38468;48.114;-1.684;2022-10-16T02:55:44;16.30;81.80
52575;DHT22;38468;48.114;-1.684;2022-10-16T02:57:44;16.30;81.70
52575;DHT22;38468;48.114;-1.684;2022-10-16T02:59:45;16.30;81.80
52575;DHT22;38468;48.114;-1.684;2022-10-16T03:01:46;16.30;81.90
52575;DHT22;38468;48.114;-1.684;2022-10-16T03:03:46;16.30;81.80
52575;DHT22;38468;48.114;-1.684;2022-10-16T03:05:47;16.20;81.60
52575;DHT22;38468;48.114;-1.684;2022-10-16T03:07:48;16.20;81.60
52575;DHT22;38468;48.114;-1.684;2022-10-16T03:09:49;16.20;81.60
52575;DHT22;38468;48.114;-1.684;2022-10-16T03:11:49;16.20;81.70
52575;DHT22;38468;48.114;-1.684;2022-10-16T03:13:50;16.10;81.70
52575;DHT22;38468;48.114;-1.684;2022-10-16T03:15:50;16.10;81.80
52575;DHT22;38468;48.114;-1.684;2022-10-16T03:17:51;16.00;81.70
52575;DHT22;38468;48.114;-1.684;2022-10-16T03:19:52;16.00;81.90
52575;DHT22;38468;48.114;-1.684;2022-10-16T03:21:53;16.10;81.90
52575;DHT22;38468;48.114;-1.684;2022-10-16T03:23:53;16.10;82.00
52575;DHT22;38468;48.114;-1.684;2022-10-16T03:25:54;16.10;82.10
52575;DHT22;38468;48.114;-1.684;2022-10-16T03:27:55;16.00;82.00
52575;DHT22;38468;48.114;-1.684;2022-10-16T03:29:55;16.00;82.10
52575;DHT22;38468;48.114;-1.684;2022-10-16T03:31:56;16.00;82.30
52575;DHT22;38468;48.114;-1.684;2022-10-16T03:33:57;16.00;82.20
52575;DHT22;38468;48.114;-1.684;2022-10-16T03:35:58;16.00;82.20
52575;DHT22;38468;48.114;-1.684;2022-10-16T03:37:58;16.00;82.20
52575;DHT22;38468;48.114;-1.684;2022-10-16T03:39:59;16.00;82.40
52575;DHT22;38468;48.114;-1.684;2022-10-16T03:41:59;15.90;82.40
52575;DHT22;38468;48.114;-1.684;2022-10-16T03:44:00;15.90;82.50
52575;DHT22;38468;48.114;-1.684;2022-10-16T03:46:01;16.00;82.40
52575;DHT22;38468;48.114;-1.684;2022-10-16T03:48:02;16.00;82.50
52575;DHT22;38468;48.114;-1.684;2022-10-16T03:50:04;16.00;82.30
52575;DHT22;38468;48.114;-1.684;2022-10-16T03:52:05;16.00;82.60
52575;DHT22;38468;48.114;-1.684;2022-10-16T03:54:05;16.00;82.50
52575;DHT22;38468;48.114;-1.684;2022-10-16T03:56:06;16.10;82.40
52575;DHT22;38468;48.114;-1.684;2022-10-16T03:58:07;16.10;82.50
52575;DHT22;38468;48.114;-1.684;2022-10-16T04:00:08;16.00;82.50
52575;DHT22;38468;48.114;-1.684;2022-10-16T04:02:09;15.80;82.80
52575;DHT22;38468;48.114;-1.684;2022-10-16T04:04:10;15.90;82.80
52575;DHT22;38468;48.114;-1.684;2022-10-16T04:06:10;15.90;82.80
52575;DHT22;38468;48.114;-1.684;2022-10-16T04:08:11;16.00;82.70
52575;DHT22;38468;48.114;-1.684;2022-10-16T04:10:12;16.00;82.60
52575;DHT22;38468;48.114;-1.684;2022-10-16T04:12:12;16.00;82.80
52575;DHT22;38468;48.114;-1.684;2022-10-16T04:14:13;16.00;82.80
52575;DHT22;38468;48.114;-1.684;2022-10-16T04:16:13;16.00;82.90
52575;DHT22;38468;48.114;-1.684;2022-10-16T04:18:14;16.00;83.00
52575;DHT22;38468;48.114;-1.684;2022-10-16T04:20:15;16.00;82.80
52575;DHT22;38468;48.114;-1.684;2022-10-16T04:22:16;16.10;82.80
52575;DHT22;38468;48.114;-1.684;2022-10-16T04:24:16;16.20;82.60
52575;DHT22;38468;48.114;-1.684;2022-10-16T04:26:17;16.20;82.70
52575;DHT22;38468;48.114;-1.684;2022-10-16T04:28:18;16.20;82.90
52575;DHT22;38468;48.114;-1.684;2022-10-16T04:30:18;16.20;83.00
52575;DHT22;38468;48.114;-1.684;2022-10-16T04:32:19;16.20;82.90
52575;DHT22;38468;48.114;-1.684;2022-10-16T04:34:20;16.20;82.80
52575;DHT22;38468;48.114;-1.684;2022-10-16T04:36:21;16.30;82.80
52575;DHT22;38468;48.114;-1.684;2022-10-16T04:38:21;16.40;82.80
52575;DHT22;38468;48.114;-1.684;2022-10-16T04:40:22;16.30;82.50
52575;DHT22;38468;48.114;-1.684;2022-10-16T04:42:22;16.30;82.70
52575;DHT22;38468;48.114;-1.684;2022-10-16T04:44:23;16.40;82.70
52575;DHT22;38468;48.114;-1.684;2022-10-16T04:46:24;16.40;82.70
52575;DHT22;38468;48.114;-1.684;2022-10-16T04:48:24;16.40;82.60
52575;DHT22;38468;48.114;-1.684;2022-10-16T04:50:25;16.40;82.60
52575;DHT22;38468;48.114;-1.684;2022-10-16T04:52:26;16.40;82.60
52575;DHT22;38468;48.114;-1.684;2022-10-16T04:54:27;16.40;82.70
52575;DHT22;38468;48.114;-1.684;2022-10-16T04:56:28;16.40;82.70
52575;DHT22;38468;48.114;-1.684;2022-10-16T04:58:29;16.30;82.80
52575;DHT22;38468;48.114;-1.684;2022-10-16T05:00:29;16.30;82.70
52575;DHT22;38468;48.114;-1.684;2022-10-16T05:02:30;16.40;82.80
52575;DHT22;38468;48.114;-1.684;2022-10-16T05:04:31;16.40;82.90
52575;DHT22;38468;48.114;-1.684;2022-10-16T05:06:31;16.50;83.00
52575;DHT22;38468;48.114;-1.684;2022-10-16T05:08:32;16.50;82.80
52575;DHT22;38468;48.114;-1.684;2022-10-16T05:10:33;16.50;82.70
52575;DHT22;38468;48.114;-1.684;2022-10-16T05:12:33;16.60;82.60
52575;DHT22;38468;48.114;-1.684;2022-10-16T05:14:34;16.60;82.60
52575;DHT22;38468;48.114;-1.684;2022-10-16T05:16:34;16.60;82.70
52575;DHT22;38468;48.114;-1.684;2022-10-16T05:18:35;16.60;82.70
52575;DHT22;38468;48.114;-1.684;2022-10-16T05:20:36;16.60;82.80
52575;DHT22;38468;48.114;-1.684;2022-10-16T05:22:36;16.60;82.80
52575;DHT22;38468;48.114;-1.684;2022-10-16T05:24:37;16.70;82.80
52575;DHT22;38468;48.114;-1.684;2022-10-16T05:26:38;16.70;82.70
52575;DHT22;38468;48.114;-1.684;2022-10-16T05:28:38;16.70;82.70
52575;DHT22;38468;48.114;-1.684;2022-10-16T05:30:39;16.70;82.80
52575;DHT22;38468;48.114;-1.684;2022-10-16T05:32:40;16.70;82.80
52575;DHT22;38468;48.114;-1.684;2022-10-16T05:34:40;16.80;82.60
52575;DHT22;38468;48.114;-1.684;2022-10-16T05:36:41;16.80;82.30
52575;DHT22;38468;48.114;-1.684;2022-10-16T05:38:42;16.80;82.40
52575;DHT22;38468;48.114;-1.684;2022-10-16T05:40:43;16.90;82.50
52575;DHT22;38468;48.114;-1.684;2022-10-16T05:42:43;16.80;82.60
52575;DHT22;38468;48.114;-1.684;2022-10-16T05:44:44;16.90;82.70
52575;DHT22;38468;48.114;-1.684;2022-10-16T05:46:46;16.90;82.60
52575;DHT22;38468;48.114;-1.684;2022-10-16T05:48:47;16.90;82.50
52575;DHT22;38468;48.114;-1.684;2022-10-16T05:50:47;16.90;82.60
52575;DHT22;38468;48.114;-1.684;2022-10-16T05:52:48;16.90;82.50
52575;DHT22;38468;48.114;-1.684;2022-10-16T05:54:49;16.90;82.40
52575;DHT22;38468;48.114;-1.684;2022-10-16T05:56:50;16.80;82.40
52575;DHT22;38468;48.114;-1.684;2022-10-16T05:58:50;16.90;82.50
52575;DHT22;38468;48.114;-1.684;2022-10-16T06:00:58;16.90;82.60
52575;DHT22;38468;48.114;-1.684;2022-10-16T06:02:59;16.90;82.50
52575;DHT22;38468;48.114;-1.684;2022-10-16T06:04:59;16.90;82.60
52575;DHT22;38468;48.114;-1.684;2022-10-16T06:07:00;16.90;82.60
52575;DHT22;38468;48.114;-1.684;2022-10-16T06:09:01;16.90;82.70
52575;DHT22;38468;48.114;-1.684;2022-10-16T06:11:03;16.90;82.60
52575;DHT22;38468;48.114;-1.684;2022-10-16T06:13:04;16.90;82.40
52575;DHT22;38468;48.114;-1.684;2022-10-16T06:15:05;17.00;82.60
52575;DHT22;38468;48.114;-1.684;2022-10-16T06:17:06;17.00;82.60
52575;DHT22;38468;48.114;-1.684;2022-10-16T06:19:06;17.00;82.60
52575;DHT22;38468;48.114;-1.684;2022-10-16T06:21:10;17.00;82.60
52575;DHT22;38468;48.114;-1.684;2022-10-16T06:23:11;17.00;82.50
52575;DHT22;38468;48.114;-1.684;2022-10-16T06:25:11;17.00;82.70
52575;DHT22;38468;48.114;-1.684;2022-10-16T06:27:12;17.00;82.70
52575;DHT22;38468;48.114;-1.684;2022-10-16T06:29:13;17.00;82.70
52575;DHT22;38468;48.114;-1.684;2022-10-16T06:31:14;17.00;82.60
52575;DHT22;38468;48.114;-1.684;2022-10-16T06:33:15;16.90;82.70
52575;DHT22;38468;48.114;-1.684;2022-10-16T06:35:15;16.90;82.90
52575;DHT22;38468;48.114;-1.684;2022-10-16T06:37:16;16.80;82.90
52575;DHT22;38468;48.114;-1.684;2022-10-16T06:39:17;16.90;82.80
52575;DHT22;38468;48.114;-1.684;2022-10-16T06:41:19;16.90;82.70
52575;DHT22;38468;48.114;-1.684;2022-10-16T06:43:20;17.00;82.50
52575;DHT22;38468;48.114;-1.684;2022-10-16T06:45:20;17.00;82.40
52575;DHT22;38468;48.114;-1.684;2022-10-16T06:47:21;16.90;82.30
52575;DHT22;38468;48.114;-1.684;2022-10-16T06:49:22;16.90;82.60
52575;DHT22;38468;48.114;-1.684;2022-10-16T06:51:24;16.90;82.80
52575;DHT22;38468;48.114;-1.684;2022-10-16T06:53:26;16.90;82.70
52575;DHT22;38468;48.114;-1.684;2022-10-16T06:55:28;16.90;82.70
52575;DHT22;38468;48.114;-1.684;2022-10-16T06:57:29;17.00;82.50
52575;DHT22;38468;48.114;-1.684;2022-10-16T06:59:30;17.00;82.50
52575;DHT22;38468;48.114;-1.684;2022-10-16T07:01:30;16.90;82.50
52575;DHT22;38468;48.114;-1.684;2022-10-16T07:03:32;16.80;82.70
52575;DHT22;38468;48.114;-1.684;2022-10-16T07:05:43;16.80;82.60
52575;DHT22;38468;48.114;-1.684;2022-10-16T07:07:44;16.90;82.50
52575;DHT22;38468;48.114;-1.684;2022-10-16T07:09:44;16.90;82.60
52575;DHT22;38468;48.114;-1.684;2022-10-16T07:11:45;17.00;82.70
52575;DHT22;38468;48.114;-1.684;2022-10-16T07:13:46;17.00;82.60
52575;DHT22;38468;48.114;-1.684;2022-10-16T07:15:47;17.00;82.50
52575;DHT22;38468;48.114;-1.684;2022-10-16T07:17:48;17.00;82.40
52575;DHT22;38468;48.114;-1.684;2022-10-16T07:19:49;17.00;82.60
52575;DHT22;38468;48.114;-1.684;2022-10-16T07:21:49;17.00;82.50
52575;DHT22;38468;48.114;-1.684;2022-10-16T07:23:51;17.00;82.70
52575;DHT22;38468;48.114;-1.684;2022-10-16T07:25:55;17.00;82.90
52575;DHT22;38468;48.114;-1.684;2022-10-16T07:27:55;17.10;82.60
52575;DHT22;38468;48.114;-1.684;2022-10-16T07:29:57;17.10;82.60
52575;DHT22;38468;48.114;-1.684;2022-10-16T07:31:57;17.10;82.30
52575;DHT22;38468;48.114;-1.684;2022-10-16T07:34:00;17.00;82.30
52575;DHT22;38468;48.114;-1.684;2022-10-16T07:36:01;17.00;81.80
52575;DHT22;38468;48.114;-1.684;2022-10-16T07:38:02;16.90;82.10
52575;DHT22;38468;48.114;-1.684;2022-10-16T07:40:03;16.90;81.90
52575;DHT22;38468;48.114;-1.684;2022-10-16T07:42:03;16.90;82.00
52575;DHT22;38468;48.114;-1.684;2022-10-16T07:44:04;17.00;82.20
52575;DHT22;38468;48.114;-1.684;2022-10-16T07:46:05;17.00;82.20
52575;DHT22;38468;48.114;-1.684;2022-10-16T07:48:06;17.10;82.00
52575;DHT22;38468;48.114;-1.684;2022-10-16T07:50:07;17.10;81.90
52575;DHT22;38468;48.114;-1.684;2022-10-16T07:52:07;17.10;81.10
52575;DHT22;38468;48.114;-1.684;2022-10-16T07:54:09;17.10;81.30
52575;DHT22;38468;48.114;-1.684;2022-10-16T07:56:10;17.10;81.30
52575;DHT22;38468;48.114;-1.684;2022-10-16T07:58:12;17.10;81.50
52575;DHT22;38468;48.114;-1.684;2022-10-16T08:00:13;17.10;80.70
52575;DHT22;38468;48.114;-1.684;2022-10-16T08:02:14;17.20;80.50
52575;DHT22;38468;48.114;-1.684;2022-10-16T08:04:14;17.20;81.00
52575;DHT22;38468;48.114;-1.684;2022-10-16T08:06:16;17.30;81.40
52575;DHT22;38468;48.114;-1.684;2022-10-16T08:08:18;17.50;81.20
52575;DHT22;38468;48.114;-1.684;2022-10-16T08:10:20;17.60;80.90
52575;DHT22;38468;48.114;-1.684;2022-10-16T08:12:21;17.90;80.90
52575;DHT22;38468;48.114;-1.684;2022-10-16T08:14:21;18.10;80.70
52575;DHT22;38468;48.114;-1.684;2022-10-16T08:16:22;18.40;80.50
52575;DHT22;38468;48.114;-1.684;2022-10-16T08:18:23;18.50;78.60
52575;DHT22;38468;48.114;-1.684;2022-10-16T08:20:25;18.70;78.50
52575;DHT22;38468;48.114;-1.684;2022-10-16T08:22:26;19.00;79.70
52575;DHT22;38468;48.114;-1.684;2022-10-16T08:24:26;19.10;79.20
52575;DHT22;38468;48.114;-1.684;2022-10-16T08:26:27;19.00;76.60
52575;DHT22;38468;48.114;-1.684;2022-10-16T08:28:28;19.10;77.70
52575;DHT22;38468;48.114;-1.684;2022-10-16T08:30:29;19.00;77.00
52575;DHT22;38468;48.114;-1.684;2022-10-16T08:32:29;18.80;76.60
52575;DHT22;38468;48.114;-1.684;2022-10-16T08:34:30;18.70;76.90
52575;DHT22;38468;48.114;-1.684;2022-10-16T08:36:31;18.50;75.90
52575;DHT22;38468;48.114;-1.684;2022-10-16T08:38:32;18.40;77.20
52575;DHT22;38468;48.114;-1.684;2022-10-16T08:40:35;18.40;78.00
52575;DHT22;38468;48.114;-1.684;2022-10-16T08:45:21;18.60;76.90
52575;DHT22;38468;48.114;-1.684;2022-10-16T08:47:35;18.50;76.90
52575;DHT22;38468;48.114;-1.684;2022-10-16T08:49:41;18.50;77.00
52575;DHT22;38468;48.114;-1.684;2022-10-16T08:51:43;18.50;77.00
52575;DHT22;38468;48.114;-1.684;2022-10-16T08:53:58;18.50;76.50
52575;DHT22;38468;48.114;-1.684;2022-10-16T08:55:59;18.40;76.20
52575;DHT22;38468;48.114;-1.684;2022-10-16T08:58:00;18.30;76.90
52575;DHT22;38468;48.114;-1.684;2022-10-16T09:00:12;18.40;77.30
52575;DHT22;38468;48.114;-1.684;2022-10-16T09:03:00;18.40;76.60
52575;DHT22;38468;48.114;-1.684;2022-10-16T09:07:32;18.40;76.60
52575;DHT22;38468;48.114;-1.684;2022-10-16T09:09:50;18.40;76.90
52575;DHT22;38468;48.114;-1.684;2022-10-16T09:14:35;18.60;76.40
52575;DHT22;38468;48.114;-1.684;2022-10-16T09:16:44;18.50;74.90
52575;DHT22;38468;48.114;-1.684;2022-10-16T09:25:23;18.30;74.30
52575;DHT22;38468;48.114;-1.684;2022-10-16T09:27:24;18.30;74.60
52575;DHT22;38468;48.114;-1.684;2022-10-16T09:29:30;18.30;74.50
52575;DHT22;38468;48.114;-1.684;2022-10-16T09:31:31;18.30;74.50
52575;DHT22;38468;48.114;-1.684;2022-10-16T09:33:39;18.20;74.70
52575;DHT22;38468;48.114;-1.684;2022-10-16T09:35:45;18.30;74.40
52575;DHT22;38468;48.114;-1.684;2022-10-16T09:37:49;18.30;74.70
52575;DHT22;38468;48.114;-1.684;2022-10-16T09:39:53;18.30;74.60
52575;DHT22;38468;48.114;-1.684;2022-10-16T09:41:55;18.40;74.30
52575;DHT22;38468;48.114;-1.684;2022-10-16T09:44:02;18.20;73.50
52575;DHT22;38468;48.114;-1.684;2022-10-16T09:46:07;18.00;74.10
52575;DHT22;38468;48.114;-1.684;2022-10-16T09:48:17;18.10;74.80
52575;DHT22;38468;48.114;-1.684;2022-10-16T09:50:27;18.10;73.90
52575;DHT22;38468;48.114;-1.684;2022-10-16T09:52:29;18.10;73.10
52575;DHT22;38468;48.114;-1.684;2022-10-16T09:54:31;18.20;73.40
52575;DHT22;38468;48.114;-1.684;2022-10-16T09:56:34;18.20;73.60
52575;DHT22;38468;48.114;-1.684;2022-10-16T09:58:36;18.30;73.40
52575;DHT22;38468;48.114;-1.684;2022-10-16T10:00:42;18.40;73.10
52575;DHT22;38468;48.114;-1.684;2022-10-16T10:02:49;18.50;73.30
52575;DHT22;38468;48.114;-1.684;2022-10-16T10:04:52;18.40;72.90
52575;DHT22;38468;48.114;-1.684;2022-10-16T10:06:58;18.40;73.10
52575;DHT22;38468;48.114;-1.684;2022-10-16T10:09:18;18.40;73.10
52575;DHT22;38468;48.114;-1.684;2022-10-16T10:16:24;18.50;72.20
52575;DHT22;38468;48.114;-1.684;2022-10-16T10:18:25;18.40;72.00
52575;DHT22;38468;48.114;-1.684;2022-10-16T10:20:36;18.30;71.80
52575;DHT22;38468;48.114;-1.684;2022-10-16T10:24:40;18.30;71.50
52575;DHT22;38468;48.114;-1.684;2022-10-16T10:27:19;18.40;72.30
52575;DHT22;38468;48.114;-1.684;2022-10-16T10:31:59;18.30;71.20
52575;DHT22;38468;48.114;-1.684;2022-10-16T10:40:57;18.20;71.90
52575;DHT22;38468;48.114;-1.684;2022-10-16T10:43:27;18.20;72.20
52575;DHT22;38468;48.114;-1.684;2022-10-16T10:45:52;18.20;72.30
52575;DHT22;38468;48.114;-1.684;2022-10-16T10:50:39;18.10;72.80
52575;DHT22;38468;48.114;-1.684;2022-10-16T11:02:40;18.00;72.90
52575;DHT22;38468;48.114;-1.684;2022-10-16T11:05:00;18.00;73.20
52575;DHT22;38468;48.114;-1.684;2022-10-16T11:07:21;18.00;73.50
52575;DHT22;38468;48.114;-1.684;2022-10-16T11:12:01;18.00;74.00
52575;DHT22;38468;48.114;-1.684;2022-10-16T11:16:20;18.10;74.20
52575;DHT22;38468;48.114;-1.684;2022-10-16T11:18:50;18.20;74.20
52575;DHT22;38468;48.114;-1.684;2022-10-16T11:20:56;18.20;73.90
52575;DHT22;38468;48.114;-1.684;2022-10-16T11:23:44;18.20;73.80
52575;DHT22;38468;48.114;-1.684;2022-10-16T11:25:36;18.20;74.10
52575;DHT22;38468;48.114;-1.684;2022-10-16T11:29:58;18.20;74.20
52575;DHT22;38468;48.114;-1.684;2022-10-16T11:32:06;18.20;74.40
52575;DHT22;38468;48.114;-1.684;2022-10-16T11:36:53;18.20;75.20
52575;DHT22;38468;48.114;-1.684;2022-10-16T11:39:21;18.20;75.40
52575;DHT22;38468;48.114;-1.684;2022-10-16T11:41:33;18.20;75.50
52575;DHT22;38468;48.114;-1.684;2022-10-16T11:43:42;18.30;75.10
52575;DHT22;38468;48.114;-1.684;2022-10-16T11:45:54;18.30;75.20
52575;DHT22;38468;48.114;-1.684;2022-10-16T11:50:40;18.00;76.20
52575;DHT22;38468;48.114;-1.684;2022-10-16T11:54:55;17.80;77.00
52575;DHT22;38468;48.114;-1.684;2022-10-16T11:57:01;17.80;77.10
52575;DHT22;38468;48.114;-1.684;2022-10-16T11:59:47;17.90;76.80
52575;DHT22;38468;48.114;-1.684;2022-10-16T12:01:53;17.90;77.10
52575;DHT22;38468;48.114;-1.684;2022-10-16T12:08:26;17.90;76.90
52575;DHT22;38468;48.114;-1.684;2022-10-16T12:10:30;18.00;76.40
52575;DHT22;38468;48.114;-1.684;2022-10-16T12:12:42;18.00;76.20
52575;DHT22;38468;48.114;-1.684;2022-10-16T12:14:45;18.00;76.70
52575;DHT22;38468;48.114;-1.684;2022-10-16T12:19:13;17.70;77.80
52575;DHT22;38468;48.114;-1.684;2022-10-16T12:21:16;17.50;79.10
52575;DHT22;38468;48.114;-1.684;2022-10-16T12:23:20;17.50;78.80
52575;DHT22;38468;48.114;-1.684;2022-10-16T12:25:40;17.70;78.50
52575;DHT22;38468;48.114;-1.684;2022-10-16T12:27:54;17.90;78.40
52575;DHT22;38468;48.114;-1.684;2022-10-16T12:30:00;18.00;78.40
52575;DHT22;38468;48.114;-1.684;2022-10-16T12:32:03;18.00;78.80
52575;DHT22;38468;48.114;-1.684;2022-10-16T12:34:04;18.00;78.60
52575;DHT22;38468;48.114;-1.684;2022-10-16T12:36:12;18.10;78.20
52575;DHT22;38468;48.114;-1.684;2022-10-16T12:40:29;18.10;77.80
52575;DHT22;38468;48.114;-1.684;2022-10-16T12:44:35;18.20;78.20
52575;DHT22;38468;48.114;-1.684;2022-10-16T12:46:39;18.20;78.10
52575;DHT22;38468;48.114;-1.684;2022-10-16T12:48:42;18.20;78.40
52575;DHT22;38468;48.114;-1.684;2022-10-16T12:50:44;18.30;78.40
52575;DHT22;38468;48.114;-1.684;2022-10-16T12:52:45;18.40;78.40
52575;DHT22;38468;48.114;-1.684;2022-10-16T12:54:47;18.50;78.10
52575;DHT22;38468;48.114;-1.684;2022-10-16T13:01:49;18.40;78.60
52575;DHT22;38468;48.114;-1.684;2022-10-16T13:04:16;18.60;78.70
52575;DHT22;38468;48.114;-1.684;2022-10-16T13:09:11;18.60;79.00
52575;DHT22;38468;48.114;-1.684;2022-10-16T13:17:04;19.00;79.10
52575;DHT22;38468;48.114;-1.684;2022-10-16T13:19:27;19.20;79.10
52575;DHT22;38468;48.114;-1.684;2022-10-16T13:28:22;19.50;78.00
52575;DHT22;38468;48.114;-1.684;2022-10-16T13:30:29;19.50;78.20
52575;DHT22;38468;48.114;-1.684;2022-10-16T13:32:30;19.50;78.10
52575;DHT22;38468;48.114;-1.684;2022-10-16T13:34:31;19.50;78.30
52575;DHT22;38468;48.114;-1.684;2022-10-16T13:36:43;19.60;78.40
52575;DHT22;38468;48.114;-1.684;2022-10-16T13:38:44;19.70;78.10
52575;DHT22;38468;48.114;-1.684;2022-10-16T13:40:50;19.50;78.50
52575;DHT22;38468;48.114;-1.684;2022-10-16T13:42:53;19.60;78.70
52575;DHT22;38468;48.114;-1.684;2022-10-16T13:44:59;19.70;79.30
52575;DHT22;38468;48.114;-1.684;2022-10-16T13:47:00;20.10;79.00
52575;DHT22;38468;48.114;-1.684;2022-10-16T13:49:14;20.40;78.60
52575;DHT22;38468;48.114;-1.684;2022-10-16T13:51:17;20.60;78.00
52575;DHT22;38468;48.114;-1.684;2022-10-16T13:53:18;20.70;77.90
52575;DHT22;38468;48.114;-1.684;2022-10-16T13:55:19;20.70;77.60
52575;DHT22;38468;48.114;-1.684;2022-10-16T13:57:22;20.70;78.00
52575;DHT22;38468;48.114;-1.684;2022-10-16T13:59:33;20.90;77.80
52575;DHT22;38468;48.114;-1.684;2022-10-16T14:01:42;21.00;77.60
52575;DHT22;38468;48.114;-1.684;2022-10-16T14:03:44;21.00;77.30
52575;DHT22;38468;48.114;-1.684;2022-10-16T14:05:50;20.90;77.50
52575;DHT22;38468;48.114;-1.684;2022-10-16T14:07:52;21.00;77.50
52575;DHT22;38468;48.114;-1.684;2022-10-16T14:09:54;21.10;77.60
52575;DHT22;38468;48.114;-1.684;2022-10-16T14:12:01;21.10;76.80
52575;DHT22;38468;48.114;-1.684;2022-10-16T14:14:03;21.10;77.80
52575;DHT22;38468;48.114;-1.684;2022-10-16T14:16:09;21.40;77.40
52575;DHT22;38468;48.114;-1.684;2022-10-16T14:18:22;21.40;76.80
52575;DHT22;38468;48.114;-1.684;2022-10-16T14:20:29;21.50;75.70
52575;DHT22;38468;48.114;-1.684;2022-10-16T14:24:35;21.80;75.90
52575;DHT22;38468;48.114;-1.684;2022-10-16T14:26:44;21.70;75.80
52575;DHT22;38468;48.114;-1.684;2022-10-16T14:28:46;21.60;75.50
52575;DHT22;38468;48.114;-1.684;2022-10-16T14:30:58;21.60;75.00
52575;DHT22;38468;48.114;-1.684;2022-10-16T14:33:18;21.70;74.80